Terminal Aerodrome Forecast
Issued by NWS Jacksonville, FL

Home | Current Version | Previous Version | Text Only | Print | Product List | Glossary On
Versions: 1 2 3 4 5 6 7 8 9 10 11 12 13 14 15 16 17 18 19 20 21 22 23 24 25 26 27 28 29 30 31 32 33
000
FTUS42 KJAX 191530 AAA
TAFJAX
TAF AMD
KJAX 191530Z 1916/2012 18008KT P6SM FEW030 SCT150 BKN250
     FM192000 21010G15KT P6SM VCTS SCT030CB BKN050 OVC200
      TEMPO 1920/1924 VRB15G25KT 3SM +TSRA BKN025CB OVC050
     FM200000 18005KT 5SM RA BR OVC015
     FM200600 17006KT P6SM OVC015
     FM200800 21006KT P6SM OVC007
     FM201000 22006KT 4SM BR OVC007=

USA.gov is the U.S. government's official web portal to all federal, state and local government web resources and services.